Myrtle Beach

Airport
ICAO code: 
KMYR
Summary
ICAO Region: 
NAM
Territory: 
Location: 
Myrtle Beach, South Carolina,
Coordinates: 
Aerial View: 
33° 40' 46.916" N, 78° 55' 41.876" W
Airport WX: 
Tropical Revolving Storm
Metar
Observation
KMYR 040656Z AUTO 22004KT 10SM CLR 15/14 A3006 RMK AO2 SLP177 T01500144
Station
Myrtle Beach Air Force Base
Date/Time
2021-12-04 06:56:00
Wind direction
220°
Wind speed
04 kts
Lowest cloud amount
n/a
Temperature
15°C
Dew point
14.4°C
Humidity
96%
Weather condition
n/a

Description

International airport serving Myrtle Beach, South Carolina, USA, located 3 nm south west of the city's central business district.

Climatology

Humid “subtropical” climate (Köppen climate classification Cfa) - characterized by hot, humid summers and cool winters. Significant amounts of precipitation occur in all seasons in most areas. Winter rainfall (and sometimes snowfall) is associated with large storms that the westerlies steer from west to east. Most summer rainfall occurs during thunderstorms and occasional tropical storms (hurricanes).

Runways

Designator Length Width Surface Rops
18/36 2897 46 ASP Yes/Yes
Airport map: 
Aerial View: 

SKYbrary Partners:

Safety knowledge contributed by: